Time;durP1;ratioP1;P1;durP2;ratioP2;P2;SDS_P1;SDS_P2;PMS_P1;PMS_P2;Temp;Humidity;BMP_temperature;BMP_pressure;BME280_temperature;BME280_humidity;BME280_pressure;Samples;Min_cycle;Max_cycle;Signal;HPM_P1;HPM_P2
2023/05/21 00:00:20;;;;;;;6.60;3.92;;;14.10;99.90;;;;;;5093993;28;20469;-60
2023/05/21 00:02:45;;;;;;;6.13;3.83;;;14.10;99.90;;;;;;5094149;28;20118;-59
2023/05/21 00:05:13;;;;;;;6.60;3.60;;;14.10;99.90;;;;;;5094487;28;20540;-59
2023/05/21 00:07:40;;;;;;;6.80;4.15;;;14.10;99.90;;;;;;5093988;28;20464;-59
2023/05/21 00:10:06;;;;;;;8.15;3.80;;;14.10;99.90;;;;;;5094123;28;20040;-59
2023/05/21 00:12:32;;;;;;;7.15;4.25;;;14.10;99.90;;;;;;5092919;28;20354;-59
2023/05/21 00:14:58;;;;;;;6.68;3.78;;;14.10;99.90;;;;;;5092756;28;20074;-59
2023/05/21 00:17:24;;;;;;;6.18;4.15;;;14.00;99.90;;;;;;5093619;28;20039;-59
2023/05/21 00:19:51;;;;;;;6.57;4.35;;;14.00;99.90;;;;;;5094220;28;20044;-59
2023/05/21 00:22:16;;;;;;;6.55;4.28;;;14.10;99.90;;;;;;5092154;28;20055;-59
2023/05/21 00:24:44;;;;;;;6.40;3.67;;;14.00;99.90;;;;;;5092645;28;20040;-59
2023/05/21 00:27:11;;;;;;;5.78;3.70;;;14.00;99.90;;;;;;5093851;28;20080;-59
2023/05/21 00:29:37;;;;;;;10.60;4.25;;;14.00;99.90;;;;;;5110038;28;20044;-59
2023/05/21 00:32:03;;;;;;;9.25;3.95;;;14.00;99.90;;;;;;5113542;28;20123;-59
2023/05/21 00:34:28;;;;;;;7.47;4.40;;;14.00;99.90;;;;;;5112401;28;20043;-59
2023/05/21 00:36:54;;;;;;;10.98;4.53;;;14.00;99.90;;;;;;5113818;28;20036;-59
2023/05/21 00:39:20;;;;;;;6.82;4.32;;;14.00;99.90;;;;;;5113828;28;20044;-59
2023/05/21 00:41:47;;;;;;;6.55;4.28;;;14.00;99.90;;;;;;5114278;28;20119;-59
2023/05/21 00:44:13;;;;;;;6.43;3.75;;;14.00;99.90;;;;;;5112090;28;20518;-59
2023/05/21 00:46:40;;;;;;;7.95;4.22;;;14.00;99.90;;;;;;5113856;28;20036;-59
2023/05/21 00:49:06;;;;;;;7.53;3.88;;;14.00;99.90;;;;;;5113829;28;20035;-59
2023/05/21 00:51:32;;;;;;;8.45;3.90;;;14.00;99.90;;;;;;5112876;28;20040;-59
2023/05/21 00:53:58;;;;;;;7.95;4.28;;;14.00;99.90;;;;;;5114335;28;20075;-59
2023/05/21 00:56:26;;;;;;;8.90;4.05;;;14.00;99.90;;;;;;5111816;28;20077;-59
2023/05/21 00:58:53;;;;;;;7.38;4.47;;;13.90;99.90;;;;;;5100846;28;20124;-59
2023/05/21 01:01:19;;;;;;;8.18;5.00;;;14.00;99.90;;;;;;5093331;28;20086;-60
2023/05/21 01:03:47;;;;;;;9.50;4.60;;;13.90;99.90;;;;;;5093144;28;20036;-59
2023/05/21 01:06:13;;;;;;;6.38;3.95;;;14.00;99.90;;;;;;5092672;28;20048;-59
2023/05/21 01:08:40;;;;;;;7.60;4.03;;;13.90;99.90;;;;;;5075020;28;20098;-59
2023/05/21 01:11:07;;;;;;;9.23;4.15;;;14.00;99.90;;;;;;5093411;28;20043;-59
2023/05/21 01:13:37;;;;;;;7.50;3.97;;;13.90;99.90;;;;;;5091520;28;20365;-59
2023/05/21 01:16:05;;;;;;;7.55;3.97;;;13.90;99.90;;;;;;5091962;28;20064;-59
2023/05/21 01:18:33;;;;;;;6.28;3.85;;;13.90;99.90;;;;;;5090752;28;20083;-59
2023/05/21 01:21:01;;;;;;;9.40;3.58;;;13.90;99.90;;;;;;5093468;28;20028;-59
2023/05/21 01:23:27;;;;;;;10.18;3.70;;;13.90;99.90;;;;;;5092458;28;20044;-59
2023/05/21 01:25:53;;;;;;;7.10;4.47;;;13.90;99.90;;;;;;5091305;28;20040;-59
2023/05/21 01:28:19;;;;;;;9.48;4.20;;;13.90;99.90;;;;;;5092701;28;20043;-59
2023/05/21 01:30:45;;;;;;;9.05;4.55;;;13.90;99.90;;;;;;5092210;28;20181;-59
2023/05/21 01:33:37;;;;;;;7.22;4.32;;;13.80;99.90;;;;;;5092085;28;20040;-59
2023/05/21 01:36:12;;;;;;;6.97;4.45;;;13.90;99.90;;;;;;5093089;28;20385;-59
2023/05/21 01:39:06;;;;;;;7.25;4.28;;;13.80;99.90;;;;;;5091229;28;20044;-59
2023/05/21 01:41:37;;;;;;;7.32;3.92;;;13.80;99.90;;;;;;5090678;28;20088;-59
2023/05/21 01:44:06;;;;;;;9.05;4.68;;;13.80;99.90;;;;;;5092200;28;20520;-59
2023/05/21 01:46:35;;;;;;;9.70;4.78;;;13.80;99.90;;;;;;5090444;28;20055;-59
2023/05/21 01:49:01;;;;;;;7.88;4.85;;;13.80;99.90;;;;;;5091375;28;20040;-59
2023/05/21 01:51:27;;;;;;;8.05;5.50;;;13.80;99.90;;;;;;5090541;28;20498;-59
2023/05/21 01:53:53;;;;;;;12.70;6.00;;;13.80;99.90;;;;;;5090860;28;20050;-59
2023/05/21 01:56:18;;;;;;;8.70;5.32;;;13.80;99.90;;;;;;5092540;28;20035;-59
2023/05/21 01:58:44;;;;;;;10.50;5.20;;;13.80;99.90;;;;;;5092241;28;20044;-59
2023/05/21 02:01:10;;;;;;;9.25;6.22;;;13.80;99.90;;;;;;5091887;28;20093;-59
2023/05/21 02:03:37;;;;;;;10.73;6.55;;;13.80;99.90;;;;;;5092170;28;20048;-59
2023/05/21 02:06:03;;;;;;;9.07;6.03;;;13.80;99.90;;;;;;5090986;28;20044;-59
2023/05/21 02:08:28;;;;;;;10.77;6.03;;;13.80;99.90;;;;;;5091171;28;20093;-60
2023/05/21 02:10:54;;;;;;;11.45;6.97;;;13.80;99.90;;;;;;5090603;28;20122;-59
2023/05/21 02:13:21;;;;;;;12.20;6.47;;;13.80;99.90;;;;;;5091823;28;20535;-59
2023/05/21 02:15:47;;;;;;;11.73;6.80;;;13.80;99.90;;;;;;5091801;28;20504;-59
2023/05/21 02:18:17;;;;;;;9.98;6.22;;;13.80;99.90;;;;;;5090825;28;20036;-60
2023/05/21 02:20:43;;;;;;;11.52;6.35;;;13.80;99.90;;;;;;5091900;28;20477;-59
2023/05/21 02:23:09;;;;;;;10.88;6.63;;;13.80;99.90;;;;;;5090398;28;20047;-59
2023/05/21 02:25:34;;;;;;;12.07;5.75;;;13.80;99.90;;;;;;5092199;28;20040;-59
2023/05/21 02:28:01;;;;;;;11.48;6.28;;;13.80;99.90;;;;;;5091964;28;20040;-59
2023/05/21 02:30:27;;;;;;;13.23;6.65;;;13.80;99.90;;;;;;5089639;28;20093;-59
2023/05/21 02:32:53;;;;;;;10.73;5.93;;;13.80;99.90;;;;;;5092064;28;20394;-59
2023/05/21 02:35:19;;;;;;;11.43;5.88;;;13.70;99.90;;;;;;5091948;28;20036;-59
2023/05/21 02:37:44;;;;;;;9.95;5.80;;;13.70;99.90;;;;;;5091432;28;20047;-59
2023/05/21 02:40:11;;;;;;;9.88;6.15;;;13.70;99.90;;;;;;5091522;28;20052;-59
2023/05/21 02:42:38;;;;;;;10.15;5.57;;;13.70;99.90;;;;;;5091159;28;20157;-59
2023/05/21 02:45:08;;;;;;;11.60;5.97;;;13.70;99.90;;;;;;5090879;28;20119;-59
2023/05/21 02:47:34;;;;;;;11.43;5.78;;;13.70;99.90;;;;;;5091417;28;20039;-59
2023/05/21 02:50:00;;;;;;;11.65;5.18;;;13.70;99.90;;;;;;5091454;28;20040;-59
2023/05/21 02:52:26;;;;;;;10.35;6.05;;;13.60;99.90;;;;;;5091445;28;20051;-59
2023/05/21 02:54:52;;;;;;;13.02;6.00;;;13.60;99.90;;;;;;5092037;28;20396;-59
2023/05/21 02:57:18;;;;;;;9.13;5.43;;;13.60;99.90;;;;;;5091105;28;20036;-59
2023/05/21 02:59:44;;;;;;;10.30;5.47;;;13.60;99.90;;;;;;5091546;28;20476;-59
2023/05/21 03:02:10;;;;;;;13.98;6.53;;;13.60;99.90;;;;;;5091469;28;20036;-59
2023/05/21 03:04:37;;;;;;;13.45;6.05;;;13.60;99.90;;;;;;5091070;28;20485;-59
2023/05/21 03:07:04;;;;;;;8.63;5.38;;;13.60;99.90;;;;;;5091918;28;20051;-59
2023/05/21 03:09:30;;;;;;;12.82;5.97;;;13.60;99.90;;;;;;5091107;28;20487;-59
2023/05/21 03:11:55;;;;;;;12.38;6.80;;;13.50;99.90;;;;;;5090111;28;20146;-59
2023/05/21 03:14:23;;;;;;;12.20;5.72;;;13.50;99.90;;;;;;5090083;28;20067;-59
2023/05/21 03:16:50;;;;;;;14.75;7.40;;;13.50;99.90;;;;;;5091541;28;20036;-59
2023/05/21 03:19:15;;;;;;;12.30;6.97;;;13.50;99.90;;;;;;5096116;28;20097;-59
2023/05/21 03:21:41;;;;;;;12.00;5.47;;;13.50;99.90;;;;;;5092361;28;20119;-59
2023/05/21 03:24:08;;;;;;;10.77;6.03;;;13.50;99.90;;;;;;5094317;28;20044;-59
2023/05/21 03:26:34;;;;;;;13.27;6.38;;;13.50;99.90;;;;;;5094751;28;20115;-59
2023/05/21 03:29:00;;;;;;;11.93;5.97;;;13.50;99.90;;;;;;5095281;28;20149;-60
2023/05/21 03:31:26;;;;;;;11.98;6.65;;;13.40;99.90;;;;;;5094435;28;20070;-59
2023/05/21 03:33:52;;;;;;;11.63;6.70;;;13.40;99.90;;;;;;5094534;28;20430;-59
2023/05/21 03:36:18;;;;;;;12.73;6.35;;;13.40;99.90;;;;;;5094956;28;20125;-59
2023/05/21 03:38:44;;;;;;;14.38;6.20;;;13.30;99.90;;;;;;5094462;28;20032;-59
2023/05/21 03:41:10;;;;;;;11.95;6.20;;;13.30;99.90;;;;;;5094147;28;20131;-59
2023/05/21 03:43:36;;;;;;;13.00;6.78;;;13.30;99.90;;;;;;5094464;28;20447;-59
2023/05/21 03:46:02;;;;;;;13.52;5.82;;;13.20;99.90;;;;;;5093400;28;20040;-59
2023/05/21 03:48:27;;;;;;;17.92;6.97;;;13.20;99.90;;;;;;5094263;28;20036;-59
2023/05/21 03:50:53;;;;;;;13.95;7.05;;;13.20;99.90;;;;;;5093575;28;20051;-59
2023/05/21 03:53:19;;;;;;;11.85;6.18;;;13.10;99.90;;;;;;5092772;28;20123;-59
2023/05/21 03:55:44;;;;;;;15.60;6.35;;;13.10;99.90;;;;;;5093335;28;20115;-59
2023/05/21 03:58:10;;;;;;;11.05;5.57;;;13.10;99.90;;;;;;5094303;28;20051;-59
2023/05/21 04:00:36;;;;;;;15.13;6.35;;;13.10;99.90;;;;;;5093982;28;20484;-59
2023/05/21 04:03:03;;;;;;;10.25;5.32;;;13.00;99.90;;;;;;5094746;28;20044;-59
2023/05/21 04:05:28;;;;;;;12.32;5.53;;;13.00;99.90;;;;;;5093563;28;20048;-59
2023/05/21 04:07:54;;;;;;;13.18;6.25;;;13.00;99.90;;;;;;5107657;28;20484;-59
2023/05/21 04:10:20;;;;;;;11.30;5.78;;;13.00;99.90;;;;;;5114425;28;20048;-59
2023/05/21 04:12:51;;;;;;;12.30;5.93;;;13.00;99.90;;;;;;5114734;28;20043;-59
2023/05/21 04:15:17;;;;;;;11.70;5.25;;;13.00;99.90;;;;;;5113380;28;20071;-59
2023/05/21 04:17:44;;;;;;;12.90;6.10;;;13.10;99.90;;;;;;5096389;28;20036;-59
2023/05/21 04:20:12;;;;;;;13.80;6.20;;;13.00;99.90;;;;;;5113406;28;20040;-59
2023/05/21 04:22:41;;;;;;;14.30;5.88;;;13.10;99.90;;;;;;5095696;28;20048;-59
2023/05/21 04:25:07;;;;;;;14.93;6.10;;;13.10;99.90;;;;;;5114829;28;20044;-59
2023/05/21 04:27:34;;;;;;;12.50;5.45;;;13.10;99.90;;;;;;5114055;28;20036;-59
2023/05/21 04:30:00;;;;;;;10.27;5.05;;;13.10;99.90;;;;;;5095635;28;20039;-59
2023/05/21 04:32:27;;;;;;;8.82;5.78;;;13.10;99.90;;;;;;5112497;28;20366;-59
2023/05/21 04:34:53;;;;;;;9.90;5.38;;;13.20;99.90;;;;;;5094192;28;20501;-59
2023/05/21 04:37:18;;;;;;;12.45;5.30;;;13.20;99.90;;;;;;5093308;28;20036;-59
2023/05/21 04:39:45;;;;;;;10.27;5.25;;;13.20;99.90;;;;;;5093520;28;20038;-59
2023/05/21 04:42:11;;;;;;;10.65;4.57;;;13.20;99.90;;;;;;5092920;28;20036;-60
2023/05/21 04:44:39;;;;;;;15.38;5.07;;;13.20;99.90;;;;;;5093595;28;20043;-60
2023/05/21 04:47:06;;;;;;;11.38;4.47;;;13.20;99.90;;;;;;5093816;28;20040;-60
2023/05/21 04:49:33;;;;;;;10.38;4.18;;;13.20;99.90;;;;;;5092181;28;20579;-60
2023/05/21 04:52:00;;;;;;;11.40;4.65;;;13.20;99.90;;;;;;5089904;28;20074;-60
2023/05/21 04:54:26;;;;;;;9.23;5.07;;;13.20;99.90;;;;;;5087173;28;20447;-60
2023/05/21 04:56:52;;;;;;;12.10;4.93;;;13.20;99.90;;;;;;5090532;28;20459;-60
2023/05/21 04:59:18;;;;;;;9.25;4.38;;;13.20;99.90;;;;;;5089294;28;20039;-60
2023/05/21 05:01:44;;;;;;;9.15;4.03;;;13.20;99.90;;;;;;5090205;28;20043;-60
2023/05/21 05:04:10;;;;;;;11.40;4.53;;;13.20;99.90;;;;;;5090080;28;20495;-60
2023/05/21 05:06:36;;;;;;;9.40;4.63;;;13.20;99.90;;;;;;5090345;28;20040;-60
2023/05/21 05:09:01;;;;;;;15.73;4.97;;;13.30;99.90;;;;;;5090470;28;20046;-60
2023/05/21 05:11:27;;;;;;;11.48;4.47;;;13.30;99.90;;;;;;5087981;28;20056;-59
2023/05/21 05:13:52;;;;;;;10.82;4.30;;;13.30;99.90;;;;;;5072276;28;20511;-60
2023/05/21 05:16:23;;;;;;;9.25;3.90;;;13.30;99.90;;;;;;5090251;28;20397;-59
2023/05/21 05:18:51;;;;;;;11.90;4.65;;;13.30;99.90;;;;;;5090153;28;20058;-60
2023/05/21 05:21:17;;;;;;;8.02;4.57;;;13.30;99.90;;;;;;5092207;28;20079;-60
2023/05/21 05:23:42;;;;;;;11.00;4.47;;;13.40;99.90;;;;;;5100324;28;20071;-60
2023/05/21 05:26:09;;;;;;;15.77;5.22;;;13.40;99.90;;;;;;5088413;28;20052;-60
2023/05/21 05:28:35;;;;;;;15.82;4.90;;;13.50;99.90;;;;;;5089751;28;20094;-60
2023/05/21 05:31:01;;;;;;;9.73;5.07;;;13.40;99.90;;;;;;5109204;28;20048;-60
2023/05/21 05:33:26;;;;;;;10.95;4.60;;;13.50;99.90;;;;;;5109572;28;20503;-60
2023/05/21 05:35:52;;;;;;;11.65;4.82;;;13.50;99.90;;;;;;5098418;28;20119;-59
2023/05/21 05:38:18;;;;;;;9.27;4.53;;;13.60;99.90;;;;;;5091639;28;20040;-60
2023/05/21 05:40:43;;;;;;;7.95;4.28;;;13.60;99.90;;;;;;5090404;28;20059;-60
2023/05/21 05:43:09;;;;;;;9.38;5.28;;;13.60;99.90;;;;;;5090047;28;20059;-60
2023/05/21 05:45:35;;;;;;;12.18;5.20;;;13.60;99.90;;;;;;5095394;28;20032;-60
2023/05/21 05:48:00;;;;;;;13.23;5.57;;;13.70;99.90;;;;;;5111730;28;20069;-59
2023/05/21 05:50:27;;;;;;;11.95;5.88;;;13.70;99.90;;;;;;5110487;28;20148;-60
2023/05/21 05:52:58;;;;;;;10.13;4.70;;;13.70;99.90;;;;;;5112592;28;20140;-60
2023/05/21 05:55:25;;;;;;;10.55;4.55;;;13.70;99.90;;;;;;5110930;28;20488;-60
2023/05/21 05:57:51;;;;;;;10.55;4.88;;;13.70;99.90;;;;;;5112654;28;20035;-60
2023/05/21 06:00:17;;;;;;;12.27;5.68;;;13.70;99.90;;;;;;5112179;28;20486;-60
2023/05/21 06:02:43;;;;;;;11.48;5.43;;;13.70;99.90;;;;;;5111374;28;20071;-60
2023/05/21 06:05:09;;;;;;;10.65;4.82;;;13.80;99.90;;;;;;5094224;28;20132;-61
2023/05/21 06:07:37;;;;;;;14.23;5.53;;;13.70;99.90;;;;;;5110966;28;20446;-60
2023/05/21 06:10:07;;;;;;;16.55;5.70;;;13.70;99.90;;;;;;5112478;28;20032;-60
2023/05/21 06:12:33;;;;;;;13.57;4.97;;;13.70;99.90;;;;;;5111978;28;20514;-60
2023/05/21 06:14:59;;;;;;;10.02;4.55;;;13.70;99.90;;;;;;5110853;28;20075;-60
2023/05/21 06:17:25;;;;;;;10.02;4.63;;;13.70;99.90;;;;;;5110848;28;20084;-60
2023/05/21 06:19:50;;;;;;;9.63;4.45;;;13.80;99.90;;;;;;5112608;28;20043;-60
2023/05/21 06:22:16;;;;;;;10.60;4.60;;;13.80;99.90;;;;;;5110584;28;20112;-60
2023/05/21 06:24:42;;;;;;;12.57;4.70;;;13.80;99.90;;;;;;5112093;28;20046;-60
2023/05/21 06:27:07;;;;;;;8.45;4.60;;;13.90;99.90;;;;;;5094349;28;20043;-60
2023/05/21 06:29:36;;;;;;;12.10;4.57;;;13.90;99.90;;;;;;5110070;28;20100;-60
2023/05/21 06:32:02;;;;;;;9.77;3.70;;;14.00;99.90;;;;;;5112372;28;20057;-60
2023/05/21 06:34:28;;;;;;;10.50;4.70;;;14.10;99.90;;;;;;5093606;28;20035;-60
2023/05/21 06:36:53;;;;;;;9.38;4.85;;;14.20;99.90;;;;;;5110818;28;20369;-60
2023/05/21 06:39:19;;;;;;;11.52;4.18;;;14.30;99.90;;;;;;5111958;28;20088;-60
2023/05/21 06:41:45;;;;;;;12.15;4.90;;;14.30;99.90;;;;;;5111998;28;20114;-60
2023/05/21 06:44:10;;;;;;;17.05;7.30;;;14.40;99.90;;;;;;5110720;28;20141;-60
2023/05/21 06:46:36;;;;;;;11.40;6.05;;;14.40;99.90;;;;;;5112111;28;20066;-60
2023/05/21 06:49:02;;;;;;;13.50;6.85;;;14.40;99.90;;;;;;5111892;28;20149;-60
2023/05/21 06:51:28;;;;;;;10.43;4.30;;;14.50;99.90;;;;;;5111736;28;20031;-60
2023/05/21 06:53:53;;;;;;;7.70;4.63;;;14.60;99.90;;;;;;5110870;28;20043;-60
2023/05/21 06:56:20;;;;;;;9.27;4.07;;;14.70;99.90;;;;;;5110680;28;20042;-60
2023/05/21 06:58:46;;;;;;;10.32;5.15;;;14.80;99.90;;;;;;5115102;28;20067;-60
2023/05/21 07:01:11;;;;;;;13.32;4.93;;;15.00;99.90;;;;;;5115746;28;20078;-60
2023/05/21 07:03:37;;;;;;;10.85;4.43;;;15.10;99.90;;;;;;5114207;28;20120;-60
2023/05/21 07:06:02;;;;;;;10.73;4.50;;;15.20;99.90;;;;;;5114923;28;20036;-60
2023/05/21 07:08:28;;;;;;;9.75;4.18;;;15.40;99.90;;;;;;5115265;28;20050;-60
2023/05/21 07:10:55;;;;;;;8.77;4.15;;;15.60;99.90;;;;;;5114259;28;20048;-60
2023/05/21 07:13:21;;;;;;;9.57;4.50;;;15.80;99.90;;;;;;5115559;28;20114;-60
2023/05/21 07:15:46;;;;;;;6.90;4.07;;;15.90;99.90;;;;;;5114434;28;20496;-60
2023/05/21 07:18:12;;;;;;;14.18;5.13;;;15.90;99.90;;;;;;5115156;28;20042;-60
2023/05/21 07:20:38;;;;;;;9.52;4.22;;;16.00;99.90;;;;;;5114430;28;20032;-60
2023/05/21 07:23:03;;;;;;;7.88;3.70;;;15.90;99.90;;;;;;5114532;28;20507;-60
2023/05/21 07:25:29;;;;;;;8.40;3.95;;;15.90;99.90;;;;;;5113737;28;20089;-60
2023/05/21 07:27:55;;;;;;;8.40;3.50;;;15.90;99.90;;;;;;5115672;28;20852;-61
2023/05/21 07:30:20;;;;;;;6.95;3.47;;;16.00;99.90;;;;;;5115216;28;20040;-60
2023/05/21 07:32:46;;;;;;;9.00;3.80;;;16.00;99.90;;;;;;5115096;28;20035;-60
2023/05/21 07:35:12;;;;;;;7.43;3.83;;;16.00;99.90;;;;;;5115046;28;20063;-60
2023/05/21 07:37:37;;;;;;;8.15;3.65;;;16.00;99.90;;;;;;5113991;28;20035;-60
2023/05/21 07:40:05;;;;;;;7.93;3.53;;;16.10;99.90;;;;;;5115171;28;20035;-61
2023/05/21 07:42:31;;;;;;;9.27;3.85;;;16.10;99.90;;;;;;5114635;28;20131;-60
2023/05/21 07:44:56;;;;;;;6.93;3.92;;;16.00;99.90;;;;;;5115717;28;20127;-60
2023/05/21 07:47:22;;;;;;;9.85;3.88;;;16.10;99.90;;;;;;5114287;28;20044;-60
2023/05/21 07:49:48;;;;;;;8.30;3.97;;;16.10;99.90;;;;;;5115073;28;20073;-60
2023/05/21 07:52:14;;;;;;;9.15;3.33;;;16.10;99.90;;;;;;5096580;28;20478;-61
2023/05/21 07:54:39;;;;;;;7.13;3.50;;;16.10;99.90;;;;;;5115225;28;20054;-60
2023/05/21 07:57:05;;;;;;;6.70;3.22;;;16.10;99.90;;;;;;5114852;28;20031;-60
2023/05/21 07:59:32;;;;;;;8.73;3.85;;;16.10;99.90;;;;;;5114151;28;20038;-61
2023/05/21 08:01:58;;;;;;;8.77;2.88;;;16.10;99.90;;;;;;5113677;28;20055;-60
2023/05/21 08:04:23;;;;;;;7.22;3.60;;;16.10;99.90;;;;;;5112974;28;20042;-60
2023/05/21 08:06:50;;;;;;;7.88;3.80;;;16.20;99.90;;;;;;5114486;28;20035;-60
2023/05/21 08:09:16;;;;;;;8.70;3.72;;;16.10;99.90;;;;;;5112433;28;20039;-60
2023/05/21 08:11:42;;;;;;;7.60;3.88;;;16.10;99.90;;;;;;5114428;28;20081;-60
2023/05/21 08:14:08;;;;;;;9.52;4.13;;;16.10;99.90;;;;;;5114384;28;20039;-60
2023/05/21 08:16:35;;;;;;;13.23;3.67;;;16.00;99.90;;;;;;5113506;28;20027;-60
2023/05/21 08:19:01;;;;;;;8.15;3.20;;;16.00;99.90;;;;;;5113488;28;20077;-60
2023/05/21 08:21:26;;;;;;;7.30;3.40;;;15.90;99.90;;;;;;5113595;28;20043;-61
2023/05/21 08:23:52;;;;;;;7.88;3.35;;;15.70;99.90;;;;;;5113260;28;20040;-60
2023/05/21 08:26:18;;;;;;;10.68;3.65;;;15.70;99.90;;;;;;5113497;28;20055;-60
2023/05/21 08:28:44;;;;;;;13.48;4.25;;;15.70;99.90;;;;;;5113714;28;20032;-60
2023/05/21 08:31:10;;;;;;;9.45;4.22;;;15.60;99.90;;;;;;5113885;28;20492;-60
2023/05/21 08:33:37;;;;;;;7.60;3.83;;;15.60;99.90;;;;;;5113063;28;20071;-60
2023/05/21 08:36:06;;;;;;;8.43;3.20;;;15.40;99.90;;;;;;5095565;28;20044;-60
2023/05/21 08:38:33;;;;;;;8.68;4.00;;;15.40;99.90;;;;;;5112263;28;20051;-60
2023/05/21 08:40:59;;;;;;;7.75;3.22;;;15.30;99.90;;;;;;5114482;28;20122;-60
2023/05/21 08:43:28;;;;;;;7.30;3.70;;;15.30;99.90;;;;;;5112986;28;20059;-60
2023/05/21 08:45:57;;;;;;;11.90;4.32;;;15.20;99.90;;;;;;5114028;28;20043;-60
2023/05/21 08:48:23;;;;;;;8.55;3.83;;;15.20;99.90;;;;;;5111771;28;20088;-60
2023/05/21 08:50:53;;;;;;;10.52;3.90;;;15.20;99.90;;;;;;5109029;28;21262;-60
2023/05/21 08:53:22;;;;;;;6.53;3.30;;;15.20;99.90;;;;;;5075129;28;20032;-60
2023/05/21 08:55:52;;;;;;;6.68;3.38;;;15.20;99.90;;;;;;5074990;28;20516;-60
2023/05/21 08:58:18;;;;;;;12.48;4.13;;;15.10;99.90;;;;;;5113802;28;20380;-60
2023/05/21 09:00:44;;;;;;;9.40;3.53;;;15.10;99.90;;;;;;5113269;28;20040;-60
2023/05/21 09:03:12;;;;;;;7.70;3.50;;;15.10;99.90;;;;;;5112169;28;20113;-61
2023/05/21 09:05:40;;;;;;;8.90;3.83;;;15.20;99.90;;;;;;5113431;28;20035;-61
2023/05/21 09:08:14;;;;;;;11.25;3.80;;;15.30;99.90;;;;;;5095224;28;20058;-60
2023/05/21 09:10:48;;;;;;;9.75;3.92;;;15.40;99.90;;;;;;5091369;28;20047;-60
2023/05/21 09:13:16;;;;;;;10.05;3.85;;;15.40;99.90;;;;;;5105371;28;20085;-60
2023/05/21 09:15:42;;;;;;;7.97;3.65;;;15.30;99.90;;;;;;5092310;28;20119;-60
2023/05/21 09:18:08;;;;;;;9.60;3.70;;;15.30;99.90;;;;;;5091629;28;20040;-60
2023/05/21 09:20:33;;;;;;;9.40;3.88;;;15.40;99.90;;;;;;5091466;28;20088;-60
2023/05/21 09:23:04;;;;;;;7.43;3.72;;;15.50;99.90;;;;;;5093440;28;20035;-60
2023/05/21 09:25:30;;;;;;;10.48;4.25;;;15.60;99.90;;;;;;5074152;28;20119;-60
2023/05/21 09:27:56;;;;;;;9.52;4.78;;;15.70;99.90;;;;;;5091771;28;20066;-60
2023/05/21 09:30:22;;;;;;;9.50;3.33;;;15.70;99.90;;;;;;5092287;28;20051;-60
2023/05/21 09:32:56;;;;;;;7.88;3.50;;;15.80;99.90;;;;;;5091309;28;20074;-60
2023/05/21 09:35:22;;;;;;;7.50;3.65;;;15.90;99.90;;;;;;5091116;28;20078;-60
2023/05/21 09:37:48;;;;;;;9.07;3.42;;;16.00;99.90;;;;;;5095904;28;20071;-60
2023/05/21 09:40:19;;;;;;;7.95;2.92;;;16.10;99.90;;;;;;5112041;28;20487;-60
2023/05/21 09:42:50;;;;;;;8.40;3.95;;;16.10;99.90;;;;;;5111564;28;20134;-60
2023/05/21 09:45:21;;;;;;;7.50;3.35;;;16.10;99.90;;;;;;5111595;28;20056;-60
2023/05/21 09:47:48;;;;;;;10.18;3.70;;;16.30;99.90;;;;;;5113405;28;20075;-60
2023/05/21 09:50:20;;;;;;;7.97;2.90;;;16.30;99.90;;;;;;5112792;28;20365;-60
2023/05/21 09:52:49;;;;;;;8.88;4.10;;;16.30;99.90;;;;;;5111087;28;20036;-60
2023/05/21 09:55:16;;;;;;;8.77;3.75;;;16.40;99.90;;;;;;5111489;28;20051;-59
2023/05/21 09:57:42;;;;;;;8.02;3.30;;;16.30;99.90;;;;;;5112767;28;20040;-62
2023/05/21 10:00:16;;;;;;;10.00;3.60;;;16.30;99.90;;;;;;5111421;28;20052;-60
2023/05/21 10:02:45;;;;;;;8.35;3.22;;;16.30;99.90;;;;;;5111336;28;20079;-60
2023/05/21 10:05:12;;;;;;;8.07;3.75;;;16.30;99.90;;;;;;5110784;28;20047;-60
2023/05/21 10:07:40;;;;;;;8.55;3.72;;;16.30;99.90;;;;;;5091845;28;20043;-60
2023/05/21 10:10:08;;;;;;;6.22;2.83;;;16.30;99.90;;;;;;5092096;28;20054;-60
2023/05/21 10:12:35;;;;;;;7.75;3.13;;;16.20;99.90;;;;;;5090809;28;20114;-60
2023/05/21 10:15:03;;;;;;;9.90;3.47;;;16.20;99.90;;;;;;5091802;28;20036;-60
2023/05/21 10:17:29;;;;;;;7.82;3.28;;;16.20;99.90;;;;;;5091487;28;20481;-60
2023/05/21 10:19:56;;;;;;;8.38;3.10;;;16.20;99.90;;;;;;5091868;28;20051;-60
2023/05/21 10:22:24;;;;;;;15.20;4.28;;;16.20;99.90;;;;;;5090424;28;20481;-60
2023/05/21 10:24:51;;;;;;;7.53;3.15;;;16.20;99.90;;;;;;5090746;28;20076;-60
2023/05/21 10:27:18;;;;;;;8.30;4.32;;;16.30;99.90;;;;;;5090446;28;20511;-60
2023/05/21 10:29:46;;;;;;;8.73;3.20;;;16.40;99.90;;;;;;5092005;28;20101;-60
2023/05/21 10:32:14;;;;;;;8.02;3.78;;;16.50;99.90;;;;;;5092460;28;20451;-60
2023/05/21 10:34:40;;;;;;;8.15;3.17;;;16.50;99.90;;;;;;5094643;28;20161;-60
2023/05/21 10:37:08;;;;;;;8.80;3.55;;;16.40;99.90;;;;;;5094901;28;20065;-60
2023/05/21 10:39:34;;;;;;;11.75;3.60;;;16.40;99.90;;;;;;5095945;28;20484;-60
2023/05/21 10:42:19;;;;;;;8.50;3.10;;;16.30;99.90;;;;;;5094787;28;20044;-60
2023/05/21 10:45:10;;;;;;;8.65;3.00;;;16.30;99.90;;;;;;5095624;28;20550;-60
2023/05/21 10:48:03;;;;;;;7.18;3.42;;;16.30;99.90;;;;;;5076269;28;20102;-60
2023/05/21 10:50:54;;;;;;;9.50;2.92;;;16.40;99.90;;;;;;5077245;28;20059;-60
2023/05/21 10:53:28;;;;;;;7.63;3.67;;;16.40;99.90;;;;;;5094209;28;20040;-60
2023/05/21 10:56:16;;;;;;;9.70;3.05;;;16.50;99.90;;;;;;5095450;28;20496;-60
2023/05/21 10:58:42;;;;;;;9.80;3.38;;;16.60;99.90;;;;;;5095365;28;20493;-60
2023/05/21 11:01:09;;;;;;;6.10;3.20;;;16.70;99.90;;;;;;5096278;28;20036;-60
2023/05/21 11:03:35;;;;;;;6.30;3.25;;;16.70;99.90;;;;;;5093866;28;20040;-60
2023/05/21 11:06:05;;;;;;;13.95;4.45;;;16.80;99.90;;;;;;5095665;28;20117;-60
2023/05/21 11:08:34;;;;;;;11.70;3.90;;;16.90;99.90;;;;;;5076915;28;20047;-60
2023/05/21 11:11:01;;;;;;;9.77;4.35;;;16.90;99.90;;;;;;5095087;28;20114;-60
2023/05/21 11:13:43;;;;;;;9.65;3.38;;;17.00;99.90;;;;;;5093681;28;20050;-60
2023/05/21 11:16:16;;;;;;;7.53;3.85;;;17.20;99.90;;;;;;5094822;28;20035;-60
2023/05/21 11:18:42;;;;;;;13.18;4.28;;;17.30;99.90;;;;;;5094268;28;20051;-60
2023/05/21 11:21:15;;;;;;;10.43;4.18;;;17.30;99.90;;;;;;5094154;28;20044;-60
2023/05/21 11:23:50;;;;;;;8.68;4.10;;;17.40;99.90;;;;;;5093465;28;20492;-60
2023/05/21 11:26:21;;;;;;;;;;;17.40;99.90;;;;;;5094522;28;20482;-60
2023/05/21 11:29:15;;;;;;;8.20;3.40;;;17.40;99.90;;;;;;5094214;28;19916;-60
2023/05/21 11:32:00;;;;;;;7.70;3.92;;;17.40;99.90;;;;;;5090149;28;20064;-60
2023/05/21 11:34:28;;;;;;;10.13;5.03;;;17.40;99.90;;;;;;5094729;28;20039;-60
2023/05/21 11:37:32;;;;;;;9.90;4.57;;;17.30;99.90;;;;;;5095232;28;20103;-60
2023/05/21 11:40:16;;;;;;;8.43;4.13;;;17.40;99.90;;;;;;5093976;28;20366;-60
2023/05/21 11:42:42;;;;;;;7.55;3.95;;;17.40;99.90;;;;;;5094533;28;20056;-60
2023/05/21 11:45:09;;;;;;;8.40;3.78;;;17.40;99.90;;;;;;5093319;28;20040;-60
2023/05/21 11:47:35;;;;;;;7.97;3.60;;;17.50;99.90;;;;;;5094472;28;20035;-60
2023/05/21 11:50:04;;;;;;;8.95;3.83;;;17.60;99.90;;;;;;5095076;28;20090;-60
2023/05/21 11:52:30;;;;;;;7.53;3.38;;;17.70;99.90;;;;;;5093848;28;20384;-60
2023/05/21 11:54:57;;;;;;;10.30;4.30;;;17.80;99.90;;;;;;5094756;28;20078;-60
2023/05/21 11:57:31;;;;;;;8.00;3.90;;;17.90;99.90;;;;;;5094340;28;20051;-60
2023/05/21 12:00:01;;;;;;;7.20;4.13;;;17.90;99.90;;;;;;5076109;28;20507;-60
2023/05/21 12:02:30;;;;;;;8.18;3.90;;;17.90;99.90;;;;;;5092969;28;20046;-60
2023/05/21 12:04:58;;;;;;;8.82;4.18;;;17.70;99.90;;;;;;5094618;28;20119;-60
2023/05/21 12:07:27;;;;;;;7.55;4.00;;;17.60;99.90;;;;;;5093485;28;20040;-60
2023/05/21 12:09:53;;;;;;;9.45;4.47;;;17.50;99.90;;;;;;5094394;28;20054;-60
2023/05/21 12:12:21;;;;;;;10.85;5.05;;;17.60;99.90;;;;;;5075544;28;20036;-60
2023/05/21 12:14:49;;;;;;;8.80;4.53;;;17.60;99.90;;;;;;5093262;28;20044;-60
2023/05/21 12:17:16;;;;;;;8.18;4.55;;;17.70;99.90;;;;;;5094034;28;20032;-60
2023/05/21 12:19:45;;;;;;;11.45;4.47;;;17.90;99.90;;;;;;5093485;28;20469;-60
2023/05/21 12:22:11;;;;;;;9.77;4.78;;;18.00;99.90;;;;;;5094119;28;20036;-60
2023/05/21 12:24:37;;;;;;;11.32;5.05;;;18.00;99.90;;;;;;5093933;28;20039;-60
2023/05/21 12:27:08;;;;;;;10.25;4.70;;;18.10;99.90;;;;;;5093719;28;20583;-60
2023/05/21 12:29:40;;;;;;;7.55;4.38;;;18.10;99.90;;;;;;5092430;28;20054;-60
2023/05/21 12:32:08;;;;;;;14.80;5.22;;;18.10;99.90;;;;;;5093299;28;20086;-60
2023/05/21 12:34:50;;;;;;;13.30;5.28;;;18.20;99.90;;;;;;5093355;28;20105;-60
2023/05/21 12:37:24;;;;;;;9.63;4.93;;;18.30;99.90;;;;;;5092438;28;20040;-60
2023/05/21 12:39:51;;;;;;;12.00;5.73;;;18.20;99.90;;;;;;5092944;28;20067;-60
2023/05/21 12:42:29;;;;;;;9.20;5.00;;;18.20;99.90;;;;;;5093029;28;20489;-60
2023/05/21 12:44:56;;;;;;;8.07;4.90;;;18.20;99.90;;;;;;5093844;28;20052;-60